sensor_id;sensor_type;location;lat;lon;timestamp;temperature;humidity
52189;DHT22;38162;45.926;13.608;2023-05-10T00:01:06;17.00;54.70
52189;DHT22;38162;45.926;13.608;2023-05-10T00:03:31;16.90;55.10
52189;DHT22;38162;45.926;13.608;2023-05-10T00:05:57;17.00;55.30
52189;DHT22;38162;45.926;13.608;2023-05-10T00:08:23;16.90;54.70
52189;DHT22;38162;45.926;13.608;2023-05-10T00:10:49;17.00;54.20
52189;DHT22;38162;45.926;13.608;2023-05-10T00:13:15;16.90;54.50
52189;DHT22;38162;45.926;13.608;2023-05-10T00:15:41;16.90;55.30
52189;DHT22;38162;45.926;13.608;2023-05-10T00:18:07;16.90;55.30
52189;DHT22;38162;45.926;13.608;2023-05-10T00:20:32;16.90;55.50
52189;DHT22;38162;45.926;13.608;2023-05-10T00:22:58;16.90;55.10
52189;DHT22;38162;45.926;13.608;2023-05-10T00:25:24;16.90;55.30
52189;DHT22;38162;45.926;13.608;2023-05-10T00:27:50;16.80;54.80
52189;DHT22;38162;45.926;13.608;2023-05-10T00:30:15;16.80;55.20
52189;DHT22;38162;45.926;13.608;2023-05-10T00:32:41;16.80;55.30
52189;DHT22;38162;45.926;13.608;2023-05-10T00:35:07;16.90;55.00
52189;DHT22;38162;45.926;13.608;2023-05-10T00:37:33;16.90;55.20
52189;DHT22;38162;45.926;13.608;2023-05-10T00:39:59;16.90;54.90
52189;DHT22;38162;45.926;13.608;2023-05-10T00:42:25;16.90;54.90
52189;DHT22;38162;45.926;13.608;2023-05-10T00:44:50;16.90;55.30
52189;DHT22;38162;45.926;13.608;2023-05-10T00:47:16;16.80;54.80
52189;DHT22;38162;45.926;13.608;2023-05-10T00:49:43;16.80;54.40
52189;DHT22;38162;45.926;13.608;2023-05-10T00:52:09;16.80;54.90
52189;DHT22;38162;45.926;13.608;2023-05-10T00:54:35;16.80;54.70
52189;DHT22;38162;45.926;13.608;2023-05-10T00:57:01;16.80;55.00
52189;DHT22;38162;45.926;13.608;2023-05-10T00:59:28;16.80;55.20
52189;DHT22;38162;45.926;13.608;2023-05-10T01:01:54;16.80;54.90
52189;DHT22;38162;45.926;13.608;2023-05-10T01:04:20;16.80;54.80
52189;DHT22;38162;45.926;13.608;2023-05-10T01:06:51;16.80;54.70
52189;DHT22;38162;45.926;13.608;2023-05-10T01:09:18;16.80;55.00
52189;DHT22;38162;45.926;13.608;2023-05-10T01:11:44;16.80;55.20
52189;DHT22;38162;45.926;13.608;2023-05-10T01:14:11;16.80;55.30
52189;DHT22;38162;45.926;13.608;2023-05-10T01:16:39;16.70;55.60
52189;DHT22;38162;45.926;13.608;2023-05-10T01:19:17;16.80;55.40
52189;DHT22;38162;45.926;13.608;2023-05-10T01:22:01;16.80;55.10
52189;DHT22;38162;45.926;13.608;2023-05-10T01:25:03;16.80;55.80
52189;DHT22;38162;45.926;13.608;2023-05-10T01:33:55;16.70;55.50
52189;DHT22;38162;45.926;13.608;2023-05-10T01:39:17;16.70;55.70
52189;DHT22;38162;45.926;13.608;2023-05-10T01:44:29;16.70;56.30
52189;DHT22;38162;45.926;13.608;2023-05-10T01:47:19;16.70;56.60
52189;DHT22;38162;45.926;13.608;2023-05-10T01:49:49;16.60;56.60
52189;DHT22;38162;45.926;13.608;2023-05-10T01:52:18;16.70;57.10
52189;DHT22;38162;45.926;13.608;2023-05-10T01:54:58;16.60;56.60
52189;DHT22;38162;45.926;13.608;2023-05-10T01:57:27;16.70;56.70
52189;DHT22;38162;45.926;13.608;2023-05-10T01:59:56;16.60;56.70
52189;DHT22;38162;45.926;13.608;2023-05-10T02:02:24;16.60;56.90
52189;DHT22;38162;45.926;13.608;2023-05-10T02:04:53;16.60;57.10
52189;DHT22;38162;45.926;13.608;2023-05-10T02:07:20;16.60;57.20
52189;DHT22;38162;45.926;13.608;2023-05-10T02:09:47;16.60;57.30
52189;DHT22;38162;45.926;13.608;2023-05-10T02:12:14;16.60;57.50
52189;DHT22;38162;45.926;13.608;2023-05-10T02:14:41;16.60;57.70
52189;DHT22;38162;45.926;13.608;2023-05-10T02:17:09;16.60;58.30
52189;DHT22;38162;45.926;13.608;2023-05-10T02:19:38;16.60;58.60
52189;DHT22;38162;45.926;13.608;2023-05-10T02:22:05;16.60;58.40
52189;DHT22;38162;45.926;13.608;2023-05-10T02:24:32;16.60;58.10
52189;DHT22;38162;45.926;13.608;2023-05-10T02:27:00;16.60;58.70
52189;DHT22;38162;45.926;13.608;2023-05-10T02:29:27;16.60;58.40
52189;DHT22;38162;45.926;13.608;2023-05-10T02:31:54;16.60;58.20
52189;DHT22;38162;45.926;13.608;2023-05-10T02:34:25;16.50;58.20
52189;DHT22;38162;45.926;13.608;2023-05-10T02:36:53;16.50;58.50
52189;DHT22;38162;45.926;13.608;2023-05-10T02:39:20;16.50;58.50
52189;DHT22;38162;45.926;13.608;2023-05-10T02:41:46;16.50;58.60
52189;DHT22;38162;45.926;13.608;2023-05-10T02:44:16;16.50;58.80
52189;DHT22;38162;45.926;13.608;2023-05-10T02:46:45;16.50;59.10
52189;DHT22;38162;45.926;13.608;2023-05-10T02:49:14;16.50;60.10
52189;DHT22;38162;45.926;13.608;2023-05-10T02:52:04;16.40;59.90
52189;DHT22;38162;45.926;13.608;2023-05-10T03:09:06;16.40;60.00
52189;DHT22;38162;45.926;13.608;2023-05-10T03:19:22;16.30;60.00
52189;DHT22;38162;45.926;13.608;2023-05-10T03:22:06;16.30;60.10
52189;DHT22;38162;45.926;13.608;2023-05-10T03:24:35;16.30;60.00
52189;DHT22;38162;45.926;13.608;2023-05-10T03:27:03;16.30;59.80
52189;DHT22;38162;45.926;13.608;2023-05-10T03:29:31;16.30;59.80
52189;DHT22;38162;45.926;13.608;2023-05-10T03:32:00;16.30;60.10
52189;DHT22;38162;45.926;13.608;2023-05-10T03:34:26;16.40;60.30
52189;DHT22;38162;45.926;13.608;2023-05-10T03:36:55;16.30;60.10
52189;DHT22;38162;45.926;13.608;2023-05-10T03:39:21;16.30;59.90
52189;DHT22;38162;45.926;13.608;2023-05-10T03:41:47;16.30;60.60
52189;DHT22;38162;45.926;13.608;2023-05-10T03:44:13;16.30;60.40
52189;DHT22;38162;45.926;13.608;2023-05-10T03:46:38;16.30;60.10
52189;DHT22;38162;45.926;13.608;2023-05-10T03:49:04;16.30;60.40
52189;DHT22;38162;45.926;13.608;2023-05-10T03:51:30;16.30;60.10
52189;DHT22;38162;45.926;13.608;2023-05-10T03:53:56;16.30;60.70
52189;DHT22;38162;45.926;13.608;2023-05-10T03:56:22;16.30;60.30
52189;DHT22;38162;45.926;13.608;2023-05-10T03:58:48;16.30;60.70
52189;DHT22;38162;45.926;13.608;2023-05-10T04:01:14;16.30;60.90
52189;DHT22;38162;45.926;13.608;2023-05-10T04:03:39;16.30;60.70
52189;DHT22;38162;45.926;13.608;2023-05-10T04:06:05;16.30;60.50
52189;DHT22;38162;45.926;13.608;2023-05-10T04:08:33;16.30;60.60
52189;DHT22;38162;45.926;13.608;2023-05-10T04:11:09;16.30;60.90
52189;DHT22;38162;45.926;13.608;2023-05-10T04:13:35;16.40;60.80
52189;DHT22;38162;45.926;13.608;2023-05-10T04:16:01;16.40;61.70
52189;DHT22;38162;45.926;13.608;2023-05-10T04:18:27;16.40;62.20
52189;DHT22;38162;45.926;13.608;2023-05-10T04:20:53;16.40;61.70
52189;DHT22;38162;45.926;13.608;2023-05-10T04:23:19;16.40;60.90
52189;DHT22;38162;45.926;13.608;2023-05-10T04:25:45;16.40;61.20
52189;DHT22;38162;45.926;13.608;2023-05-10T04:28:10;16.40;61.20
52189;DHT22;38162;45.926;13.608;2023-05-10T04:30:36;16.40;61.70
52189;DHT22;38162;45.926;13.608;2023-05-10T04:33:02;16.40;62.80
52189;DHT22;38162;45.926;13.608;2023-05-10T04:35:43;16.40;62.90
52189;DHT22;38162;45.926;13.608;2023-05-10T04:38:13;16.40;62.30
52189;DHT22;38162;45.926;13.608;2023-05-10T04:58:19;16.50;62.80
52189;DHT22;38162;45.926;13.608;2023-05-10T05:01:19;16.50;63.00
52189;DHT22;38162;45.926;13.608;2023-05-10T05:04:05;16.50;63.40
52189;DHT22;38162;45.926;13.608;2023-05-10T05:06:32;16.50;62.90
52189;DHT22;38162;45.926;13.608;2023-05-10T05:08:58;16.50;62.70
52189;DHT22;38162;45.926;13.608;2023-05-10T05:11:24;16.60;63.10
52189;DHT22;38162;45.926;13.608;2023-05-10T05:13:51;16.60;63.10
52189;DHT22;38162;45.926;13.608;2023-05-10T05:16:17;16.60;63.20
52189;DHT22;38162;45.926;13.608;2023-05-10T05:18:42;16.60;63.40
52189;DHT22;38162;45.926;13.608;2023-05-10T05:21:18;16.60;63.30
52189;DHT22;38162;45.926;13.608;2023-05-10T05:23:45;16.60;64.50
52189;DHT22;38162;45.926;13.608;2023-05-10T05:26:10;16.60;64.60
52189;DHT22;38162;45.926;13.608;2023-05-10T05:28:36;16.60;64.50
52189;DHT22;38162;45.926;13.608;2023-05-10T05:31:06;16.70;65.10
52189;DHT22;38162;45.926;13.608;2023-05-10T05:33:35;16.60;65.20
52189;DHT22;38162;45.926;13.608;2023-05-10T05:36:02;16.70;64.80
52189;DHT22;38162;45.926;13.608;2023-05-10T05:38:28;16.70;64.70
52189;DHT22;38162;45.926;13.608;2023-05-10T05:40:54;16.70;64.10
52189;DHT22;38162;45.926;13.608;2023-05-10T05:43:20;16.70;64.00
52189;DHT22;38162;45.926;13.608;2023-05-10T05:45:46;16.70;64.70
52189;DHT22;38162;45.926;13.608;2023-05-10T05:48:12;16.80;64.90
52189;DHT22;38162;45.926;13.608;2023-05-10T05:50:37;16.80;65.40
52189;DHT22;38162;45.926;13.608;2023-05-10T05:53:03;16.80;65.40
52189;DHT22;38162;45.926;13.608;2023-05-10T05:55:29;16.80;66.00
52189;DHT22;38162;45.926;13.608;2023-05-10T05:57:57;16.80;66.20
52189;DHT22;38162;45.926;13.608;2023-05-10T06:00:23;16.80;66.20
52189;DHT22;38162;45.926;13.608;2023-05-10T06:02:49;16.80;66.30
52189;DHT22;38162;45.926;13.608;2023-05-10T06:05:14;16.90;66.90
52189;DHT22;38162;45.926;13.608;2023-05-10T06:07:40;16.90;66.80
52189;DHT22;38162;45.926;13.608;2023-05-10T06:10:08;16.90;67.00
52189;DHT22;38162;45.926;13.608;2023-05-10T06:12:34;16.90;66.40
52189;DHT22;38162;45.926;13.608;2023-05-10T06:15:00;16.90;67.00
52189;DHT22;38162;45.926;13.608;2023-05-10T06:17:26;16.90;68.40
52189;DHT22;38162;45.926;13.608;2023-05-10T06:19:53;16.90;68.40
52189;DHT22;38162;45.926;13.608;2023-05-10T06:22:21;17.00;68.10
52189;DHT22;38162;45.926;13.608;2023-05-10T06:25:15;16.90;68.40
52189;DHT22;38162;45.926;13.608;2023-05-10T06:30:41;17.00;68.10
52189;DHT22;38162;45.926;13.608;2023-05-10T06:33:19;17.00;68.90
52189;DHT22;38162;45.926;13.608;2023-05-10T06:39:11;17.00;69.30
52189;DHT22;38162;45.926;13.608;2023-05-10T06:45:33;17.00;70.30
52189;DHT22;38162;45.926;13.608;2023-05-10T06:48:27;17.10;68.90
52189;DHT22;38162;45.926;13.608;2023-05-10T06:50:53;17.10;70.40
52189;DHT22;38162;45.926;13.608;2023-05-10T06:53:20;17.10;72.30
52189;DHT22;38162;45.926;13.608;2023-05-10T06:55:46;17.10;72.10
52189;DHT22;38162;45.926;13.608;2023-05-10T06:58:12;17.10;71.70
52189;DHT22;38162;45.926;13.608;2023-05-10T07:00:38;17.10;73.40
52189;DHT22;38162;45.926;13.608;2023-05-10T07:03:06;17.10;72.50
52189;DHT22;38162;45.926;13.608;2023-05-10T07:05:32;17.10;71.20
52189;DHT22;38162;45.926;13.608;2023-05-10T07:07:57;17.10;72.30
52189;DHT22;38162;45.926;13.608;2023-05-10T07:10:24;17.00;72.70
52189;DHT22;38162;45.926;13.608;2023-05-10T07:12:49;17.10;73.60
52189;DHT22;38162;45.926;13.608;2023-05-10T07:15:15;17.10;73.50
52189;DHT22;38162;45.926;13.608;2023-05-10T07:17:41;17.10;73.40
52189;DHT22;38162;45.926;13.608;2023-05-10T07:20:07;17.00;72.60
52189;DHT22;38162;45.926;13.608;2023-05-10T07:22:33;17.00;74.00
52189;DHT22;38162;45.926;13.608;2023-05-10T07:24:59;17.00;74.50
52189;DHT22;38162;45.926;13.608;2023-05-10T07:27:25;17.10;74.30
52189;DHT22;38162;45.926;13.608;2023-05-10T07:29:51;17.00;75.00
52189;DHT22;38162;45.926;13.608;2023-05-10T07:32:16;17.10;74.80
52189;DHT22;38162;45.926;13.608;2023-05-10T07:34:42;17.10;75.20
52189;DHT22;38162;45.926;13.608;2023-05-10T07:37:08;17.10;77.30
52189;DHT22;38162;45.926;13.608;2023-05-10T07:39:34;17.10;77.00
52189;DHT22;38162;45.926;13.608;2023-05-10T07:42:00;17.10;76.60
52189;DHT22;38162;45.926;13.608;2023-05-10T07:44:25;17.20;76.70
52189;DHT22;38162;45.926;13.608;2023-05-10T07:46:51;17.20;77.30
52189;DHT22;38162;45.926;13.608;2023-05-10T07:49:17;17.20;77.40
52189;DHT22;38162;45.926;13.608;2023-05-10T07:51:43;17.20;76.50
52189;DHT22;38162;45.926;13.608;2023-05-10T07:54:09;17.20;76.40
52189;DHT22;38162;45.926;13.608;2023-05-10T07:56:35;17.30;76.00
52189;DHT22;38162;45.926;13.608;2023-05-10T07:59:02;17.30;76.30
52189;DHT22;38162;45.926;13.608;2023-05-10T08:01:33;17.30;76.70
52189;DHT22;38162;45.926;13.608;2023-05-10T08:04:00;17.30;77.30
52189;DHT22;38162;45.926;13.608;2023-05-10T08:06:27;17.30;77.00
52189;DHT22;38162;45.926;13.608;2023-05-10T08:08:55;17.30;77.50
52189;DHT22;38162;45.926;13.608;2023-05-10T08:11:24;17.20;76.90
52189;DHT22;38162;45.926;13.608;2023-05-10T08:14:17;17.30;76.30
52189;DHT22;38162;45.926;13.608;2023-05-10T08:16:55;17.30;77.30
52189;DHT22;38162;45.926;13.608;2023-05-10T08:22:42;17.30;78.00
52189;DHT22;38162;45.926;13.608;2023-05-10T08:25:59;17.30;78.00
52189;DHT22;38162;45.926;13.608;2023-05-10T08:28:57;17.20;76.90
52189;DHT22;38162;45.926;13.608;2023-05-10T08:31:28;17.30;79.10
52189;DHT22;38162;45.926;13.608;2023-05-10T08:37:06;17.30;79.50
52189;DHT22;38162;45.926;13.608;2023-05-10T08:39:35;17.30;78.80
52189;DHT22;38162;45.926;13.608;2023-05-10T08:42:04;17.20;79.00
52189;DHT22;38162;45.926;13.608;2023-05-10T08:44:32;17.20;79.90
52189;DHT22;38162;45.926;13.608;2023-05-10T08:47:04;17.30;80.00
52189;DHT22;38162;45.926;13.608;2023-05-10T08:49:32;17.30;79.00
52189;DHT22;38162;45.926;13.608;2023-05-10T08:52:02;17.20;80.30
52189;DHT22;38162;45.926;13.608;2023-05-10T08:54:29;17.20;79.80
52189;DHT22;38162;45.926;13.608;2023-05-10T08:56:56;17.30;78.80
52189;DHT22;38162;45.926;13.608;2023-05-10T08:59:22;17.30;79.60
52189;DHT22;38162;45.926;13.608;2023-05-10T09:01:50;17.20;80.90
52189;DHT22;38162;45.926;13.608;2023-05-10T09:04:16;17.20;79.70
52189;DHT22;38162;45.926;13.608;2023-05-10T09:06:42;17.20;81.20
52189;DHT22;38162;45.926;13.608;2023-05-10T09:09:08;17.20;81.00
52189;DHT22;38162;45.926;13.608;2023-05-10T09:11:34;17.20;81.00
52189;DHT22;38162;45.926;13.608;2023-05-10T09:14:01;17.10;81.80
52189;DHT22;38162;45.926;13.608;2023-05-10T09:16:27;17.10;81.60
52189;DHT22;38162;45.926;13.608;2023-05-10T09:18:53;17.10;82.10
52189;DHT22;38162;45.926;13.608;2023-05-10T09:21:19;17.00;82.30
52189;DHT22;38162;45.926;13.608;2023-05-10T09:23:46;17.00;82.40
52189;DHT22;38162;45.926;13.608;2023-05-10T09:26:12;17.00;81.70
52189;DHT22;38162;45.926;13.608;2023-05-10T09:28:52;17.00;81.90
52189;DHT22;38162;45.926;13.608;2023-05-10T09:31:18;16.90;82.40
52189;DHT22;38162;45.926;13.608;2023-05-10T09:33:48;16.90;83.50
52189;DHT22;38162;45.926;13.608;2023-05-10T09:36:15;16.80;83.20
52189;DHT22;38162;45.926;13.608;2023-05-10T09:38:52;16.80;83.80
52189;DHT22;38162;45.926;13.608;2023-05-10T09:41:18;16.80;85.90
52189;DHT22;38162;45.926;13.608;2023-05-10T09:43:44;16.70;86.60
52189;DHT22;38162;45.926;13.608;2023-05-10T09:46:10;16.70;86.50
52189;DHT22;38162;45.926;13.608;2023-05-10T09:48:47;16.70;86.90
52189;DHT22;38162;45.926;13.608;2023-05-10T09:51:21;16.70;88.60
52189;DHT22;38162;45.926;13.608;2023-05-10T09:53:47;16.70;88.30
52189;DHT22;38162;45.926;13.608;2023-05-10T09:56:34;16.70;87.40
52189;DHT22;38162;45.926;13.608;2023-05-10T09:59:27;16.70;87.10
52189;DHT22;38162;45.926;13.608;2023-05-10T10:02:19;16.60;89.60
52189;DHT22;38162;45.926;13.608;2023-05-10T10:05:01;16.60;89.70
52189;DHT22;38162;45.926;13.608;2023-05-10T10:07:48;16.50;88.90
52189;DHT22;38162;45.926;13.608;2023-05-10T10:13:29;16.50;90.80
52189;DHT22;38162;45.926;13.608;2023-05-10T10:16:18;16.50;90.50
52189;DHT22;38162;45.926;13.608;2023-05-10T10:19:00;16.50;90.40
52189;DHT22;38162;45.926;13.608;2023-05-10T10:21:45;16.50;90.50
52189;DHT22;38162;45.926;13.608;2023-05-10T10:24:11;16.40;90.60
52189;DHT22;38162;45.926;13.608;2023-05-10T10:26:38;16.40;90.90
52189;DHT22;38162;45.926;13.608;2023-05-10T10:29:23;16.40;90.70
52189;DHT22;38162;45.926;13.608;2023-05-10T10:32:03;16.30;90.60
52189;DHT22;38162;45.926;13.608;2023-05-10T10:34:30;16.30;91.30
52189;DHT22;38162;45.926;13.608;2023-05-10T10:36:57;16.30;91.80
52189;DHT22;38162;45.926;13.608;2023-05-10T10:39:24;16.30;92.10
52189;DHT22;38162;45.926;13.608;2023-05-10T10:41:54;16.40;93.20
52189;DHT22;38162;45.926;13.608;2023-05-10T10:47:05;16.40;93.50
52189;DHT22;38162;45.926;13.608;2023-05-10T10:57:24;16.30;91.80
52189;DHT22;38162;45.926;13.608;2023-05-10T11:00:37;16.30;91.90
52189;DHT22;38162;45.926;13.608;2023-05-10T11:07:59;16.30;91.00
52189;DHT22;38162;45.926;13.608;2023-05-10T11:10:26;16.30;91.30
52189;DHT22;38162;45.926;13.608;2023-05-10T11:13:10;16.30;91.60
52189;DHT22;38162;45.926;13.608;2023-05-10T11:15:38;16.30;91.40
52189;DHT22;38162;45.926;13.608;2023-05-10T11:18:23;16.30;91.60
52189;DHT22;38162;45.926;13.608;2023-05-10T11:20:55;16.20;92.20
52189;DHT22;38162;45.926;13.608;2023-05-10T11:23:21;16.20;92.00
52189;DHT22;38162;45.926;13.608;2023-05-10T11:25:48;16.20;92.50
52189;DHT22;38162;45.926;13.608;2023-05-10T11:28:17;16.20;92.60
52189;DHT22;38162;45.926;13.608;2023-05-10T11:30:44;16.20;92.60
52189;DHT22;38162;45.926;13.608;2023-05-10T11:33:15;16.20;92.70
52189;DHT22;38162;45.926;13.608;2023-05-10T11:35:42;16.20;92.20
52189;DHT22;38162;45.926;13.608;2023-05-10T11:38:30;16.10;93.10
52189;DHT22;38162;45.926;13.608;2023-05-10T11:41:04;16.10;93.00
52189;DHT22;38162;45.926;13.608;2023-05-10T11:44:05;16.10;93.10
52189;DHT22;38162;45.926;13.608;2023-05-10T11:50:31;16.20;94.00
52189;DHT22;38162;45.926;13.608;2023-05-10T12:03:55;16.30;93.70
52189;DHT22;38162;45.926;13.608;2023-05-10T12:06:27;16.30;95.30
52189;DHT22;38162;45.926;13.608;2023-05-10T12:08:54;16.40;94.40
52189;DHT22;38162;45.926;13.608;2023-05-10T12:11:23;16.40;93.90
52189;DHT22;38162;45.926;13.608;2023-05-10T12:13:50;16.40;94.30
52189;DHT22;38162;45.926;13.608;2023-05-10T12:16:20;16.40;94.50
52189;DHT22;38162;45.926;13.608;2023-05-10T12:18:51;16.50;94.30
52189;DHT22;38162;45.926;13.608;2023-05-10T12:21:17;16.50;93.90
52189;DHT22;38162;45.926;13.608;2023-05-10T12:23:46;16.50;94.10
52189;DHT22;38162;45.926;13.608;2023-05-10T12:26:12;16.50;94.10
52189;DHT22;38162;45.926;13.608;2023-05-10T12:28:38;16.50;93.40
52189;DHT22;38162;45.926;13.608;2023-05-10T12:31:07;16.60;93.80
52189;DHT22;38162;45.926;13.608;2023-05-10T12:33:41;16.60;93.90
52189;DHT22;38162;45.926;13.608;2023-05-10T12:36:09;16.60;93.50
52189;DHT22;38162;45.926;13.608;2023-05-10T12:38:40;16.60;93.40
52189;DHT22;38162;45.926;13.608;2023-05-10T12:41:17;16.60;93.20
52189;DHT22;38162;45.926;13.608;2023-05-10T12:43:44;16.60;93.20
52189;DHT22;38162;45.926;13.608;2023-05-10T12:46:11;16.60;93.20
52189;DHT22;38162;45.926;13.608;2023-05-10T12:48:39;16.60;92.90
52189;DHT22;38162;45.926;13.608;2023-05-10T12:51:05;16.60;94.20
52189;DHT22;38162;45.926;13.608;2023-05-10T12:53:35;16.60;93.90
52189;DHT22;38162;45.926;13.608;2023-05-10T12:56:01;16.60;93.20
52189;DHT22;38162;45.926;13.608;2023-05-10T12:58:27;16.60;93.40
52189;DHT22;38162;45.926;13.608;2023-05-10T13:00:52;16.60;93.40
52189;DHT22;38162;45.926;13.608;2023-05-10T13:03:19;16.60;93.20
52189;DHT22;38162;45.926;13.608;2023-05-10T13:05:44;16.60;92.90
52189;DHT22;38162;45.926;13.608;2023-05-10T13:08:10;16.60;92.90
52189;DHT22;38162;45.926;13.608;2023-05-10T13:10:36;16.60;93.40
52189;DHT22;38162;45.926;13.608;2023-05-10T13:13:02;16.60;93.70
52189;DHT22;38162;45.926;13.608;2023-05-10T13:15:28;16.50;95.00
52189;DHT22;38162;45.926;13.608;2023-05-10T13:28:52;16.50;94.00
52189;DHT22;38162;45.926;13.608;2023-05-10T13:31:52;16.50;95.60
52189;DHT22;38162;45.926;13.608;2023-05-10T13:37:43;16.50;95.20
52189;DHT22;38162;45.926;13.608;2023-05-10T13:40:57;16.50;94.90
52189;DHT22;38162;45.926;13.608;2023-05-10T13:43:20;16.60;94.20
52189;DHT22;38162;45.926;13.608;2023-05-10T13:45:46;16.60;94.00
52189;DHT22;38162;45.926;13.608;2023-05-10T13:48:12;16.60;94.00
52189;DHT22;38162;45.926;13.608;2023-05-10T13:50:38;16.60;94.50
52189;DHT22;38162;45.926;13.608;2023-05-10T13:53:04;16.60;95.40
52189;DHT22;38162;45.926;13.608;2023-05-10T13:55:30;16.60;95.60
52189;DHT22;38162;45.926;13.608;2023-05-10T13:57:56;16.60;95.70
52189;DHT22;38162;45.926;13.608;2023-05-10T14:00:23;16.60;95.50
52189;DHT22;38162;45.926;13.608;2023-05-10T14:02:49;16.60;94.40
52189;DHT22;38162;45.926;13.608;2023-05-10T14:05:14;16.60;95.30
52189;DHT22;38162;45.926;13.608;2023-05-10T14:07:40;16.60;95.40
52189;DHT22;38162;45.926;13.608;2023-05-10T14:10:06;16.60;94.40
52189;DHT22;38162;45.926;13.608;2023-05-10T14:12:32;16.60;95.90
52189;DHT22;38162;45.926;13.608;2023-05-10T14:14:58;16.60;95.50
52189;DHT22;38162;45.926;13.608;2023-05-10T14:17:24;16.60;95.10
52189;DHT22;38162;45.926;13.608;2023-05-10T14:19:49;16.60;94.40
52189;DHT22;38162;45.926;13.608;2023-05-10T14:22:15;16.60;94.70
52189;DHT22;38162;45.926;13.608;2023-05-10T14:24:41;16.60;95.90
52189;DHT22;38162;45.926;13.608;2023-05-10T14:27:07;16.60;95.80
52189;DHT22;38162;45.926;13.608;2023-05-10T14:29:32;16.60;95.70
52189;DHT22;38162;45.926;13.608;2023-05-10T14:31:58;16.70;95.40
52189;DHT22;38162;45.926;13.608;2023-05-10T14:34:24;16.60;95.40
52189;DHT22;38162;45.926;13.608;2023-05-10T14:36:50;16.60;96.40
52189;DHT22;38162;45.926;13.608;2023-05-10T14:39:16;16.60;95.80
52189;DHT22;38162;45.926;13.608;2023-05-10T14:41:42;16.60;96.90
52189;DHT22;38162;45.926;13.608;2023-05-10T14:44:10;16.70;99.10
52189;DHT22;38162;45.926;13.608;2023-05-10T14:46:36;16.60;97.20
52189;DHT22;38162;45.926;13.608;2023-05-10T14:49:02;16.70;98.80
52189;DHT22;38162;45.926;13.608;2023-05-10T14:51:28;16.60;97.70
52189;DHT22;38162;45.926;13.608;2023-05-10T14:53:54;16.60;96.70
52189;DHT22;38162;45.926;13.608;2023-05-10T14:56:20;16.60;95.90
52189;DHT22;38162;45.926;13.608;2023-05-10T14:59:21;16.60;97.10
52189;DHT22;38162;45.926;13.608;2023-05-10T15:02:03;16.70;97.60
52189;DHT22;38162;45.926;13.608;2023-05-10T15:04:32;16.50;96.90
52189;DHT22;38162;45.926;13.608;2023-05-10T15:07:46;16.50;96.10
52189;DHT22;38162;45.926;13.608;2023-05-10T15:11:02;16.50;96.80
52189;DHT22;38162;45.926;13.608;2023-05-10T15:13:52;16.40;96.20
52189;DHT22;38162;45.926;13.608;2023-05-10T15:16:23;16.40;97.00
52189;DHT22;38162;45.926;13.608;2023-05-10T15:18:49;16.30;97.20
52189;DHT22;38162;45.926;13.608;2023-05-10T15:21:18;16.40;97.10
52189;DHT22;38162;45.926;13.608;2023-05-10T15:23:44;16.40;97.70
52189;DHT22;38162;45.926;13.608;2023-05-10T15:26:16;16.30;97.80
52189;DHT22;38162;45.926;13.608;2023-05-10T15:28:42;16.30;98.00
52189;DHT22;38162;45.926;13.608;2023-05-10T15:31:09;16.30;98.10
52189;DHT22;38162;45.926;13.608;2023-05-10T15:33:36;16.30;98.10
52189;DHT22;38162;45.926;13.608;2023-05-10T15:36:02;16.30;98.20
52189;DHT22;38162;45.926;13.608;2023-05-10T15:38:29;16.30;97.70
52189;DHT22;38162;45.926;13.608;2023-05-10T15:40:56;16.30;96.90
52189;DHT22;38162;45.926;13.608;2023-05-10T15:43:23;16.40;95.20
52189;DHT22;38162;45.926;13.608;2023-05-10T15:45:49;16.40;94.60
52189;DHT22;38162;45.926;13.608;2023-05-10T15:48:18;16.30;94.30
52189;DHT22;38162;45.926;13.608;2023-05-10T15:50:45;16.30;94.30
52189;DHT22;38162;45.926;13.608;2023-05-10T15:53:11;16.30;94.40
52189;DHT22;38162;45.926;13.608;2023-05-10T15:55:37;16.20;95.40
52189;DHT22;38162;45.926;13.608;2023-05-10T15:58:02;16.10;96.10
52189;DHT22;38162;45.926;13.608;2023-05-10T16:00:28;16.10;96.50
52189;DHT22;38162;45.926;13.608;2023-05-10T16:02:54;16.10;95.80
52189;DHT22;38162;45.926;13.608;2023-05-10T16:05:20;16.00;96.50
52189;DHT22;38162;45.926;13.608;2023-05-10T16:07:47;16.00;96.70
52189;DHT22;38162;45.926;13.608;2023-05-10T16:10:13;16.00;96.50
52189;DHT22;38162;45.926;13.608;2023-05-10T16:12:39;16.00;96.20
52189;DHT22;38162;45.926;13.608;2023-05-10T16:15:07;16.00;96.50
52189;DHT22;38162;45.926;13.608;2023-05-10T16:17:34;15.90;96.00
52189;DHT22;38162;45.926;13.608;2023-05-10T16:20:00;15.90;95.60
52189;DHT22;38162;45.926;13.608;2023-05-10T16:22:25;15.90;95.50
52189;DHT22;38162;45.926;13.608;2023-05-10T16:24:53;15.90;95.50
52189;DHT22;38162;45.926;13.608;2023-05-10T16:27:19;15.90;95.40
52189;DHT22;38162;45.926;13.608;2023-05-10T16:29:46;15.80;95.80
52189;DHT22;38162;45.926;13.608;2023-05-10T16:32:12;15.80;95.90
52189;DHT22;38162;45.926;13.608;2023-05-10T16:34:38;15.80;95.70
52189;DHT22;38162;45.926;13.608;2023-05-10T16:37:04;15.80;96.00
52189;DHT22;38162;45.926;13.608;2023-05-10T16:39:29;15.80;95.70
52189;DHT22;38162;45.926;13.608;2023-05-10T16:45:23;15.80;95.50
52189;DHT22;38162;45.926;13.608;2023-05-10T16:48:28;15.70;95.80
52189;DHT22;38162;45.926;13.608;2023-05-10T16:51:14;15.70;96.00
52189;DHT22;38162;45.926;13.608;2023-05-10T16:53:46;15.70;95.40
52189;DHT22;38162;45.926;13.608;2023-05-10T16:56:50;15.70;95.30
52189;DHT22;38162;45.926;13.608;2023-05-10T16:59:16;15.70;95.60
52189;DHT22;38162;45.926;13.608;2023-05-10T17:01:47;15.70;95.20
52189;DHT22;38162;45.926;13.608;2023-05-10T17:04:16;15.60;95.00
52189;DHT22;38162;45.926;13.608;2023-05-10T17:07:03;15.60;95.00
52189;DHT22;38162;45.926;13.608;2023-05-10T17:09:29;15.60;94.80
52189;DHT22;38162;45.926;13.608;2023-05-10T17:11:55;15.60;95.40
52189;DHT22;38162;45.926;13.608;2023-05-10T17:14:21;15.60;95.70
52189;DHT22;38162;45.926;13.608;2023-05-10T17:16:46;15.50;96.20
52189;DHT22;38162;45.926;13.608;2023-05-10T17:19:13;15.60;99.90
52189;DHT22;38162;45.926;13.608;2023-05-10T17:21:39;15.50;96.90
52189;DHT22;38162;45.926;13.608;2023-05-10T17:24:05;15.50;97.30
52189;DHT22;38162;45.926;13.608;2023-05-10T17:26:31;15.50;97.00
52189;DHT22;38162;45.926;13.608;2023-05-10T17:28:57;15.50;97.60
52189;DHT22;38162;45.926;13.608;2023-05-10T17:31:23;15.50;97.30